Time;durP1;ratioP1;P1;durP2;ratioP2;P2;SDS_P1;SDS_P2;PMS_P1;PMS_P2;Temp;Humidity;BMP_temperature;BMP_pressure;BME280_temperature;BME280_humidity;BME280_pressure;Samples;Min_cycle;Max_cycle;Signal;HPM_P1;HPM_P2
2023/05/14 00:00:48;;;;;;;7.78;7.00;;;13.40;99.90;;;;;;5072532;28;20643;-51
2023/05/14 00:03:14;;;;;;;11.48;8.07;;;13.50;99.90;;;;;;5072743;28;20170;-51
2023/05/14 00:05:39;;;;;;;11.50;7.85;;;13.40;99.90;;;;;;5072141;28;20213;-48
2023/05/14 00:08:05;;;;;;;9.70;7.85;;;13.40;99.90;;;;;;5072058;28;20227;-51
2023/05/14 00:10:31;;;;;;;10.02;7.28;;;13.40;99.90;;;;;;5072420;28;20177;-51
2023/05/14 00:12:56;;;;;;;16.98;7.50;;;13.40;99.90;;;;;;5072297;28;20170;-51
2023/05/14 00:15:22;;;;;;;9.02;7.40;;;13.30;99.90;;;;;;5072176;28;20173;-51
2023/05/14 00:17:47;;;;;;;10.15;6.63;;;13.30;99.90;;;;;;5072130;28;20170;-50
2023/05/14 00:20:13;;;;;;;10.15;7.35;;;13.40;99.90;;;;;;5071726;28;20635;-50
2023/05/14 00:22:39;;;;;;;8.63;6.30;;;13.20;99.90;;;;;;5071155;28;20643;-50
2023/05/14 00:25:06;;;;;;;10.10;6.53;;;13.10;99.90;;;;;;5071979;28;20211;-50
2023/05/14 00:27:31;;;;;;;10.25;7.05;;;13.00;99.90;;;;;;5071896;28;20206;-51
2023/05/14 00:29:57;;;;;;;8.85;7.20;;;13.00;99.90;;;;;;5072002;28;20162;-49
2023/05/14 00:32:23;;;;;;;14.32;6.63;;;12.90;99.90;;;;;;5071982;28;20254;-50
2023/05/14 00:34:48;;;;;;;10.23;7.47;;;13.00;99.90;;;;;;5071936;28;20166;-48
2023/05/14 00:37:14;;;;;;;11.00;7.10;;;13.00;99.90;;;;;;5072119;28;20182;-48
2023/05/14 00:39:40;;;;;;;8.88;7.07;;;13.00;99.90;;;;;;5071963;28;20212;-51
2023/05/14 00:42:06;;;;;;;10.18;7.07;;;13.00;99.90;;;;;;5071845;28;20510;-49
2023/05/14 00:44:31;;;;;;;10.70;6.65;;;12.90;99.90;;;;;;5071762;28;20170;-50
2023/05/14 00:46:58;;;;;;;8.50;6.65;;;12.90;99.90;;;;;;5071893;28;20228;-48
2023/05/14 00:49:24;;;;;;;6.57;5.97;;;12.90;99.90;;;;;;5071683;28;20219;-48
2023/05/14 00:51:51;;;;;;;11.15;6.88;;;12.90;99.90;;;;;;5071671;28;20162;-47
2023/05/14 00:54:17;;;;;;;8.02;6.63;;;12.80;99.90;;;;;;5072339;28;20174;-46
2023/05/14 00:56:46;;;;;;;9.57;7.20;;;12.80;99.90;;;;;;5072066;28;20154;-47
2023/05/14 00:59:13;;;;;;;12.32;7.38;;;12.80;99.90;;;;;;5071925;28;20170;-48
2023/05/14 01:01:38;;;;;;;12.73;8.52;;;12.80;99.90;;;;;;5071621;28;20215;-47
2023/05/14 01:04:05;;;;;;;9.77;7.97;;;13.00;99.90;;;;;;5071585;28;20278;-50
2023/05/14 01:06:50;;;;;;;16.83;9.60;;;12.80;99.90;;;;;;5071309;28;20213;-52
2023/05/14 01:09:44;;;;;;;12.40;9.10;;;12.80;99.90;;;;;;5072180;28;20244;-50
2023/05/14 01:12:29;;;;;;;13.50;9.73;;;12.90;99.90;;;;;;5071714;28;20220;-48
2023/05/14 01:15:00;;;;;;;12.13;9.48;;;12.90;99.90;;;;;;5071562;28;20689;-52
2023/05/14 01:17:28;;;;;;;19.00;9.38;;;12.90;99.90;;;;;;5071401;28;20168;-53
2023/05/14 01:19:55;;;;;;;12.32;10.32;;;12.80;99.90;;;;;;5071403;28;20166;-51
2023/05/14 01:22:21;;;;;;;19.25;9.77;;;12.90;99.90;;;;;;5071360;28;20174;-51
2023/05/14 01:24:46;;;;;;;12.48;10.52;;;12.90;99.90;;;;;;5071750;28;20166;-52
2023/05/14 01:27:29;;;;;;;11.02;9.88;;;12.90;99.90;;;;;;5071904;28;20670;-52
2023/05/14 01:30:15;;;;;;;13.52;11.27;;;12.80;99.90;;;;;;5071310;28;20165;-52
2023/05/14 01:32:43;;;;;;;13.07;11.25;;;12.80;99.90;;;;;;5067913;28;20189;-52
2023/05/14 01:35:09;;;;;;;15.02;12.35;;;13.00;99.90;;;;;;5075318;28;20201;-52
2023/05/14 01:37:36;;;;;;;15.50;12.20;;;12.90;99.90;;;;;;5075415;28;20166;-51
2023/05/14 01:40:03;;;;;;;15.00;10.70;;;12.90;99.90;;;;;;5075168;28;20294;-52
2023/05/14 01:42:30;;;;;;;13.82;9.85;;;12.80;99.90;;;;;;5075141;28;20642;-51
2023/05/14 01:44:55;;;;;;;13.25;8.98;;;12.80;99.90;;;;;;5075215;28;20174;-51
2023/05/14 01:47:21;;;;;;;10.75;9.30;;;12.80;99.90;;;;;;5075040;28;20208;-52
2023/05/14 01:49:47;;;;;;;11.85;9.10;;;;;;;;;;5075474;28;20162;-46
2023/05/14 01:52:13;;;;;;;10.73;8.43;;;12.70;99.90;;;;;;5075245;28;20540;-51
2023/05/14 01:54:38;;;;;;;11.52;9.07;;;12.60;99.90;;;;;;5075058;28;20173;-51
2023/05/14 01:57:04;;;;;;;12.60;10.73;;;12.50;99.90;;;;;;5074784;28;20174;-51
2023/05/14 01:59:29;;;;;;;13.10;10.65;;;12.40;99.90;;;;;;5074708;28;20173;-51
2023/05/14 02:01:55;;;;;;;13.65;10.88;;;12.50;99.90;;;;;;5074714;28;20166;-51
2023/05/14 02:04:21;;;;;;;14.93;12.23;;;12.40;99.90;;;;;;5074708;28;20163;-52
2023/05/14 02:06:46;;;;;;;11.77;9.43;;;12.50;99.90;;;;;;5074761;28;20224;-51
2023/05/14 02:09:12;;;;;;;14.80;11.27;;;12.50;99.90;;;;;;5074939;28;20699;-51
2023/05/14 02:11:37;;;;;;;13.38;11.52;;;12.40;99.90;;;;;;5074563;28;20252;-51
2023/05/14 02:14:03;;;;;;;11.52;9.45;;;12.40;99.90;;;;;;5074548;28;20245;-51
2023/05/14 02:16:28;;;;;;;16.38;11.40;;;12.40;99.90;;;;;;5074469;28;20647;-51
2023/05/14 02:18:54;;;;;;;12.40;10.40;;;12.30;99.90;;;;;;5074676;28;20197;-51
2023/05/14 02:21:19;;;;;;;10.65;9.55;;;12.30;99.90;;;;;;5074412;28;20216;-51
2023/05/14 02:23:47;;;;;;;11.98;10.38;;;12.30;99.90;;;;;;5074731;28;20710;-51
2023/05/14 02:26:12;;;;;;;12.70;10.57;;;12.20;99.90;;;;;;5074851;28;20198;-51
2023/05/14 02:28:38;;;;;;;12.40;10.48;;;12.20;99.90;;;;;;5074464;28;20177;-51
2023/05/14 02:31:04;;;;;;;13.93;10.77;;;12.30;99.90;;;;;;5074473;28;20191;-52
2023/05/14 02:33:29;;;;;;;15.38;10.63;;;12.20;99.90;;;;;;5072899;28;20170;-51
2023/05/14 02:35:55;;;;;;;13.18;9.90;;;12.20;99.90;;;;;;5074412;28;20174;-50
2023/05/14 02:38:21;;;;;;;11.60;10.40;;;12.10;99.90;;;;;;5074093;28;20166;-51
2023/05/14 02:40:47;;;;;;;10.73;9.57;;;;;;;;;;5074103;28;20216;-49
2023/05/14 02:43:12;;;;;;;13.73;10.93;;;12.00;99.90;;;;;;5073487;28;20170;-51
2023/05/14 02:45:38;;;;;;;16.20;12.18;;;12.10;99.90;;;;;;5073894;28;20173;-52
2023/05/14 02:48:03;;;;;;;14.63;10.90;;;12.20;99.90;;;;;;5073839;28;20166;-51
2023/05/14 02:50:29;;;;;;;10.80;9.70;;;12.10;99.90;;;;;;5073933;28;20193;-51
2023/05/14 02:52:55;;;;;;;13.30;10.35;;;12.10;99.90;;;;;;5073824;28;20166;-51
2023/05/14 02:55:20;;;;;;;15.52;10.60;;;12.10;99.90;;;;;;5074041;28;20177;-51
2023/05/14 02:57:46;;;;;;;15.68;11.32;;;12.10;99.90;;;;;;5074106;28;20168;-50
2023/05/14 03:00:12;;;;;;;15.48;10.93;;;12.10;99.90;;;;;;5074354;28;20170;-51
2023/05/14 03:02:37;;;;;;;12.07;9.98;;;12.00;99.90;;;;;;5073912;28;20170;-51
2023/05/14 03:05:03;;;;;;;10.70;9.55;;;12.00;99.90;;;;;;5073716;28;20182;-51
2023/05/14 03:07:29;;;;;;;15.10;10.07;;;12.00;99.90;;;;;;5073499;28;20289;-51
2023/05/14 03:09:55;;;;;;;16.02;11.40;;;11.90;99.90;;;;;;5073782;28;20181;-51
2023/05/14 03:12:21;;;;;;;12.25;9.95;;;11.90;99.90;;;;;;5073450;28;20668;-51
2023/05/14 03:14:46;;;;;;;14.98;9.93;;;;;;;;;;5073703;28;20170;-46
2023/05/14 03:17:12;;;;;;;15.60;10.60;;;11.90;99.90;;;;;;5073710;28;20169;-51
2023/05/14 03:19:37;;;;;;;14.55;10.90;;;11.90;99.90;;;;;;5073236;28;20165;-51
2023/05/14 03:22:03;;;;;;;17.58;12.02;;;11.90;99.90;;;;;;5073251;28;20181;-51
2023/05/14 03:24:30;;;;;;;12.60;11.30;;;11.80;99.90;;;;;;5073158;28;20170;-51
2023/05/14 03:26:55;;;;;;;15.18;11.85;;;11.80;99.90;;;;;;5071823;28;20206;-51
2023/05/14 03:29:21;;;;;;;14.43;12.00;;;11.70;99.90;;;;;;5073078;28;20643;-51
2023/05/14 03:31:47;;;;;;;16.10;11.02;;;;;;;;;;5072865;28;20248;-49
2023/05/14 03:34:13;;;;;;;15.40;11.52;;;;;;;;;;5073636;28;20265;-51
2023/05/14 03:36:39;;;;;;;13.63;10.88;;;11.60;99.90;;;;;;5072951;28;20194;-51
2023/05/14 03:39:08;;;;;;;16.65;14.73;;;11.60;99.90;;;;;;5073096;28;20185;-50
2023/05/14 03:41:34;;;;;;;17.55;13.82;;;11.70;99.90;;;;;;5072849;28;20162;-51
2023/05/14 03:44:00;;;;;;;15.88;13.55;;;11.70;99.90;;;;;;5072783;28;20181;-51
2023/05/14 03:46:25;;;;;;;12.82;11.52;;;11.70;99.90;;;;;;5071438;28;20308;-50
2023/05/14 03:48:51;;;;;;;17.23;12.90;;;11.60;99.90;;;;;;5072721;28;20170;-50
2023/05/14 03:51:17;;;;;;;17.73;13.63;;;11.60;99.90;;;;;;5072679;28;20170;-51
2023/05/14 03:53:42;;;;;;;18.52;14.07;;;11.60;99.90;;;;;;5072986;28;20166;-46
2023/05/14 03:56:08;;;;;;;18.80;15.07;;;11.70;99.90;;;;;;5072593;28;20169;-46
2023/05/14 03:58:33;;;;;;;20.33;12.68;;;11.70;99.90;;;;;;5072535;28;20174;-46
2023/05/14 04:00:59;;;;;;;17.50;13.60;;;11.70;99.90;;;;;;5072511;28;20293;-46
2023/05/14 04:03:25;;;;;;;16.00;13.38;;;11.80;99.90;;;;;;5072388;28;20261;-46
2023/05/14 04:05:50;;;;;;;13.95;12.30;;;11.70;99.90;;;;;;5072145;28;20221;-46
2023/05/14 04:08:16;;;;;;;14.35;12.85;;;;;;;;;;5072735;28;20205;-47
2023/05/14 04:10:42;;;;;;;10.63;9.40;;;11.60;99.90;;;;;;5072682;28;20170;-50
2023/05/14 04:13:07;;;;;;;12.02;10.18;;;11.60;99.90;;;;;;5072263;28;20245;-49
2023/05/14 04:15:34;;;;;;;12.02;10.57;;;11.60;99.90;;;;;;5072172;28;20173;-48
2023/05/14 04:18:00;;;;;;;17.83;11.70;;;11.70;99.90;;;;;;5072448;28;20182;-51
2023/05/14 04:20:26;;;;;;;13.32;10.63;;;11.70;99.90;;;;;;5072139;28;20173;-48
2023/05/14 04:22:52;;;;;;;10.63;9.52;;;11.60;99.90;;;;;;5072139;28;20219;-51
2023/05/14 04:25:18;;;;;;;12.07;10.20;;;11.70;99.90;;;;;;5072149;28;20169;-50
2023/05/14 04:27:44;;;;;;;14.10;10.48;;;11.70;99.90;;;;;;5072567;28;20312;-49
2023/05/14 04:30:10;;;;;;;11.65;10.45;;;11.60;99.90;;;;;;5072022;28;20650;-48
2023/05/14 04:32:35;;;;;;;10.73;9.63;;;11.60;99.90;;;;;;5071892;28;20208;-49
2023/05/14 04:35:01;;;;;;;12.48;10.25;;;11.70;99.90;;;;;;5071904;28;20306;-49
2023/05/14 04:37:27;;;;;;;11.70;10.48;;;11.70;99.90;;;;;;5071992;28;20173;-50
2023/05/14 04:39:52;;;;;;;12.48;9.60;;;11.70;99.90;;;;;;5072120;28;20181;-46
2023/05/14 04:42:18;;;;;;;12.60;10.88;;;11.70;99.90;;;;;;5071774;28;20196;-46
2023/05/14 04:44:43;;;;;;;13.07;11.77;;;11.70;99.90;;;;;;5072422;28;20650;-46
2023/05/14 04:47:09;;;;;;;17.85;11.90;;;11.60;99.90;;;;;;5071620;28;20205;-46
2023/05/14 04:49:34;;;;;;;12.60;11.18;;;11.50;99.90;;;;;;5071985;28;20170;-46
2023/05/14 04:52:01;;;;;;;14.68;11.60;;;11.60;99.90;;;;;;5071789;28;20198;-45
2023/05/14 04:54:27;;;;;;;13.73;10.52;;;;;;;;;;5071909;28;20170;-46
2023/05/14 04:56:54;;;;;;;14.63;10.98;;;11.90;99.90;;;;;;5071651;28;20188;-46
2023/05/14 04:59:20;;;;;;;16.30;12.07;;;11.90;99.90;;;;;;5071910;28;20170;-46
2023/05/14 05:01:46;;;;;;;13.45;11.52;;;;;;;;;;5071595;28;20542;-46
2023/05/14 05:04:12;;;;;;;15.93;11.65;;;12.00;99.90;;;;;;5071963;28;20176;-46
2023/05/14 05:06:37;;;;;;;17.27;11.75;;;12.50;99.90;;;;;;5070823;28;20218;-46
2023/05/14 05:09:03;;;;;;;13.32;11.13;;;12.60;99.90;;;;;;5071556;28;20678;-46
2023/05/14 05:11:29;;;;;;;14.50;10.65;;;12.70;99.90;;;;;;5071754;28;20638;-46
2023/05/14 05:13:54;;;;;;;14.18;10.38;;;13.00;99.90;;;;;;5071411;28;20227;-46
2023/05/14 05:16:20;;;;;;;15.02;10.55;;;13.00;99.90;;;;;;5071511;28;20170;-46
2023/05/14 05:18:46;;;;;;;16.02;10.60;;;;;;;;;;5071780;28;20166;-46
2023/05/14 05:21:11;;;;;;;18.75;11.30;;;12.90;99.90;;;;;;5071832;28;20243;-46
2023/05/14 05:23:37;;;;;;;20.00;11.25;;;13.00;99.90;;;;;;5071420;28;20624;-46
2023/05/14 05:26:02;;;;;;;19.67;10.55;;;13.30;99.90;;;;;;5071228;28;20198;-46
2023/05/14 05:28:28;;;;;;;13.35;10.50;;;13.40;99.90;;;;;;5071383;28;20254;-46
2023/05/14 05:30:54;;;;;;;21.73;11.45;;;13.50;99.90;;;;;;5071370;28;20176;-47
2023/05/14 05:33:19;;;;;;;18.10;11.88;;;13.40;99.90;;;;;;5071332;28;20167;-46
2023/05/14 05:35:45;;;;;;;25.13;12.88;;;13.40;99.90;;;;;;5071611;28;20189;-46
2023/05/14 05:38:10;;;;;;;17.75;11.77;;;13.10;99.90;;;;;;5071222;28;20173;-48
2023/05/14 05:40:36;;;;;;;14.95;11.30;;;13.00;99.90;;;;;;5071474;28;20260;-49
2023/05/14 05:43:01;;;;;;;14.65;11.75;;;13.00;99.90;;;;;;5071209;28;20252;-48
2023/05/14 05:45:27;;;;;;;24.48;12.88;;;13.00;99.90;;;;;;5071207;28;20150;-49
2023/05/14 05:47:53;;;;;;;23.85;11.90;;;13.00;99.90;;;;;;5071260;28;20205;-48
2023/05/14 05:50:18;;;;;;;18.70;12.15;;;13.00;99.90;;;;;;5071084;28;20249;-50
2023/05/14 05:52:44;;;;;;;18.45;13.05;;;13.00;99.90;;;;;;5071429;28;20166;-47
2023/05/14 05:55:09;;;;;;;18.23;13.60;;;13.00;99.90;;;;;;5071101;28;20169;-49
2023/05/14 05:57:35;;;;;;;23.17;13.60;;;13.10;99.90;;;;;;5070995;28;20174;-48
2023/05/14 06:00:11;;;;;;;20.45;14.40;;;13.20;99.90;;;;;;5071022;28;20258;-47
2023/05/14 06:02:37;;;;;;;18.83;14.15;;;13.20;99.90;;;;;;5071254;28;20185;-48
2023/05/14 06:05:02;;;;;;;16.73;15.02;;;13.40;99.90;;;;;;5070803;28;20163;-47
2023/05/14 06:07:28;;;;;;;16.92;14.88;;;13.60;99.90;;;;;;5070853;28;20571;-50
2023/05/14 06:09:53;;;;;;;16.30;14.57;;;13.60;99.90;;;;;;5070881;28;20170;-48
2023/05/14 06:12:20;;;;;;;19.25;15.27;;;13.80;99.90;;;;;;5070908;28;20300;-51
2023/05/14 06:14:46;;;;;;;22.20;15.10;;;13.80;99.90;;;;;;5071178;28;20166;-49
2023/05/14 06:17:11;;;;;;;18.95;16.20;;;13.80;99.90;;;;;;5071544;28;20178;-48
2023/05/14 06:19:37;;;;;;;22.25;16.13;;;13.90;99.90;;;;;;5074300;28;20170;-47
2023/05/14 06:22:02;;;;;;;22.98;17.38;;;13.90;99.90;;;;;;5074367;28;20168;-46
2023/05/14 06:24:28;;;;;;;24.52;17.48;;;13.90;99.90;;;;;;5074347;28;20166;-45
2023/05/14 06:26:53;;;;;;;23.83;16.95;;;14.10;99.90;;;;;;5074234;28;20202;-45
2023/05/14 06:29:19;;;;;;;26.20;17.63;;;14.10;99.90;;;;;;5073759;28;20244;-45
2023/05/14 06:31:45;;;;;;;21.23;16.80;;;;;;;;;;5074683;28;20167;-45
2023/05/14 06:34:11;;;;;;;22.55;16.75;;;14.10;99.90;;;;;;5074580;28;20696;-44
2023/05/14 06:36:36;;;;;;;21.25;16.65;;;14.20;99.90;;;;;;5074220;28;20162;-44
2023/05/14 06:39:02;;;;;;;22.42;17.50;;;14.30;99.90;;;;;;5074061;28;20174;-44
2023/05/14 06:41:28;;;;;;;17.73;15.82;;;14.40;99.90;;;;;;5074211;28;20166;-44
2023/05/14 06:43:54;;;;;;;24.58;17.35;;;;;;;;;;5073732;28;20162;-45
2023/05/14 06:46:20;;;;;;;22.40;17.60;;;14.90;99.90;;;;;;5073815;28;20650;-44
2023/05/14 06:48:46;;;;;;;27.75;17.20;;;15.00;99.90;;;;;;5072421;28;20208;-45
2023/05/14 06:51:12;;;;;;;21.58;16.75;;;15.10;99.90;;;;;;5074225;28;20169;-44
2023/05/14 06:53:38;;;;;;;24.73;17.40;;;15.10;99.90;;;;;;5073867;28;20168;-45
2023/05/14 06:56:04;;;;;;;19.27;16.17;;;15.30;99.90;;;;;;5073784;28;20687;-44
2023/05/14 06:58:29;;;;;;;23.60;17.85;;;15.20;99.90;;;;;;5074144;28;20253;-44
2023/05/14 07:00:55;;;;;;;20.83;16.75;;;15.30;99.90;;;;;;5073255;28;20212;-45
2023/05/14 07:03:21;;;;;;;22.30;18.02;;;15.40;99.90;;;;;;5073888;28;20181;-44
2023/05/14 07:05:47;;;;;;;23.73;17.63;;;15.40;99.90;;;;;;5073196;28;20717;-45
2023/05/14 07:08:12;;;;;;;22.05;17.67;;;15.50;99.90;;;;;;5073701;28;20174;-45
2023/05/14 07:10:38;;;;;;;22.55;18.10;;;15.70;99.90;;;;;;5073329;28;20212;-45
2023/05/14 07:13:04;;;;;;;24.00;17.05;;;;;;;;;;5070206;28;20190;-45
2023/05/14 07:15:30;;;;;;;26.90;18.33;;;16.10;99.90;;;;;;5071347;28;20162;-44
2023/05/14 07:17:56;;;;;;;28.17;18.23;;;15.90;99.90;;;;;;5069863;28;20178;-48
2023/05/14 07:20:22;;;;;;;24.23;18.27;;;;;;;;;;5071165;28;20174;-48
2023/05/14 07:22:49;;;;;;;27.13;18.42;;;;;;;;;;5071557;28;20169;-46
2023/05/14 07:25:14;;;;;;;23.38;18.02;;;16.00;99.90;;;;;;5071604;28;20647;-45
2023/05/14 07:27:40;;;;;;;22.48;18.13;;;;;;;;;;5070883;28;20282;-45
2023/05/14 07:30:07;;;;;;;23.58;18.23;;;16.30;99.90;;;;;;5070921;28;20170;-47
2023/05/14 07:32:32;;;;;;;26.38;17.30;;;16.60;99.90;;;;;;5070996;28;20184;-47
2023/05/14 07:34:58;;;;;;;23.48;17.90;;;16.50;99.90;;;;;;5071415;28;20154;-47
2023/05/14 07:37:24;;;;;;;18.80;15.93;;;;;;;;;;5070948;28;20177;-48
2023/05/14 07:39:51;;;;;;;22.52;16.50;;;;;;;;;;5070786;28;20172;-47
2023/05/14 07:42:17;;;;;;;24.20;17.42;;;;;;;;;;5071376;28;20200;-47
2023/05/14 07:44:43;;;;;;;19.63;16.95;;;16.90;99.90;;;;;;5071663;28;20223;-48
2023/05/14 07:47:09;;;;;;;18.02;16.00;;;16.90;99.90;;;;;;5070962;28;20594;-47
2023/05/14 07:49:35;;;;;;;19.63;17.55;;;16.90;99.90;;;;;;5071130;28;20172;-49
2023/05/14 07:52:01;;;;;;;25.52;17.45;;;;;;;;;;5070612;28;20257;-47
2023/05/14 07:54:27;;;;;;;24.58;19.20;;;;;;;;;;5070676;28;20166;-48
2023/05/14 07:56:53;;;;;;;27.55;20.58;;;;;;;;;;5070823;28;20189;-51
2023/05/14 07:59:18;;;;;;;22.05;17.65;;;17.40;99.90;;;;;;5070967;28;20162;-48
2023/05/14 08:01:44;;;;;;;21.13;16.40;;;;;;;;;;5070902;28;20635;-49
2023/05/14 08:04:14;;;;;;;20.63;16.65;;;17.40;99.90;;;;;;5070622;28;20233;-50
2023/05/14 08:06:40;;;;;;;21.02;16.98;;;17.50;99.90;;;;;;5070435;28;20229;-49
2023/05/14 08:09:07;;;;;;;24.60;18.65;;;;;;;;;;5070536;28;20566;-50
2023/05/14 08:11:33;;;;;;;18.67;16.05;;;17.70;99.90;;;;;;5070844;28;20174;-50
2023/05/14 08:13:59;;;;;;;16.63;14.82;;;17.90;99.90;;;;;;5070391;28;20165;-51
2023/05/14 08:16:25;;;;;;;16.83;14.07;;;;;;;;;;5070075;28;20158;-49
2023/05/14 08:18:50;;;;;;;16.80;14.32;;;17.90;99.90;;;;;;5070381;28;20170;-49
2023/05/14 08:21:16;;;;;;;15.45;13.93;;;17.90;99.90;;;;;;5070403;28;20591;-49
2023/05/14 08:23:42;;;;;;;17.45;14.23;;;18.10;99.90;;;;;;5070990;28;20668;-52
2023/05/14 08:26:07;;;;;;;18.67;13.77;;;18.30;99.90;;;;;;5068810;28;20173;-47
2023/05/14 08:28:33;;;;;;;16.38;13.85;;;18.20;99.90;;;;;;5069786;28;20170;-47
2023/05/14 08:30:58;;;;;;;17.05;14.80;;;18.20;99.90;;;;;;5070260;28;20631;-48
2023/05/14 08:33:24;;;;;;;17.27;14.25;;;18.30;99.90;;;;;;5070077;28;20784;-48
2023/05/14 08:35:52;;;;;;;16.52;14.10;;;18.60;99.90;;;;;;5069897;28;20166;-48
2023/05/14 08:38:17;;;;;;;16.85;14.15;;;18.70;99.90;;;;;;5070160;28;20166;-50
2023/05/14 08:40:57;;;;;;;16.30;13.52;;;18.50;99.90;;;;;;5069861;28;20172;-48
2023/05/14 08:43:29;;;;;;;20.80;14.55;;;18.50;99.90;;;;;;5070028;28;20533;-49
2023/05/14 08:45:59;;;;;;;14.25;12.50;;;18.50;99.90;;;;;;5069944;28;20319;-50
2023/05/14 08:48:30;;;;;;;14.77;12.77;;;18.60;99.90;;;;;;5070100;28;20174;-47
2023/05/14 08:50:57;;;;;;;14.05;12.65;;;18.70;99.90;;;;;;5069362;28;20702;-50
2023/05/14 08:53:23;;;;;;;13.98;12.52;;;;;;;;;;5069592;28;20178;-47
2023/05/14 08:55:50;;;;;;;13.77;11.50;;;18.90;99.90;;;;;;5069304;28;20670;-50
2023/05/14 08:58:16;;;;;;;13.85;12.15;;;;;;;;;;5069299;28;20573;-46
2023/05/14 09:00:42;;;;;;;13.15;11.70;;;19.10;99.90;;;;;;5070148;28;20586;-47
2023/05/14 09:03:08;;;;;;;13.02;11.68;;;19.20;99.90;;;;;;5069750;28;20177;-49
2023/05/14 09:05:34;;;;;;;12.00;10.63;;;;;;;;;;5069232;28;20224;-48
2023/05/14 09:08:00;;;;;;;13.02;11.38;;;;;;;;;;5069659;28;20212;-49
2023/05/14 09:10:26;;;;;;;17.20;12.13;;;19.20;99.90;;;;;;5069551;28;20166;-48
2023/05/14 09:12:52;;;;;;;13.45;11.55;;;;;;;;;;5069337;28;20227;-49
2023/05/14 09:15:17;;;;;;;12.73;11.43;;;19.30;99.90;;;;;;5069609;28;20219;-49
2023/05/14 09:17:46;;;;;;;13.25;11.95;;;19.20;99.90;;;;;;5069644;28;20201;-49
2023/05/14 09:20:13;;;;;;;13.73;12.25;;;19.30;99.90;;;;;;5070205;28;20173;-49
2023/05/14 09:22:39;;;;;;;14.00;11.55;;;;;;;;;;5068577;28;20166;-51
2023/05/14 09:25:08;;;;;;;11.10;10.00;;;19.30;99.90;;;;;;5069649;28;20177;-50
2023/05/14 09:27:35;;;;;;;9.45;8.52;;;19.50;99.90;;;;;;5069642;28;20209;-50
2023/05/14 09:30:11;;;;;;;11.40;9.77;;;19.60;99.90;;;;;;5069474;28;20155;-49
2023/05/14 09:32:38;;;;;;;13.25;10.27;;;19.70;99.90;;;;;;5069307;28;20166;-48
2023/05/14 09:35:31;;;;;;;13.57;11.32;;;19.90;99.90;;;;;;5069587;28;20519;-47
2023/05/14 09:37:57;;;;;;;12.70;11.25;;;;;;;;;;5067762;28;20178;-49
2023/05/14 09:40:23;;;;;;;10.93;9.82;;;20.10;99.90;;;;;;5067985;28;20189;-47
2023/05/14 09:42:49;;;;;;;12.57;9.32;;;20.30;99.90;;;;;;5069499;28;20170;-47
2023/05/14 09:45:15;;;;;;;12.43;9.07;;;20.20;99.90;;;;;;5069636;28;20174;-47
2023/05/14 09:47:41;;;;;;;12.02;10.55;;;;;;;;;;5069297;28;20235;-47
2023/05/14 09:50:08;;;;;;;13.00;10.85;;;20.20;99.90;;;;;;5069161;28;20167;-46
2023/05/14 09:52:34;;;;;;;10.70;9.60;;;20.30;99.90;;;;;;5070968;28;20234;-50
2023/05/14 09:55:00;;;;;;;12.55;10.27;;;;;;;;;;5072917;28;20241;-49
2023/05/14 09:57:26;;;;;;;11.77;10.57;;;20.40;99.90;;;;;;5073079;28;20166;-48
2023/05/14 09:59:52;;;;;;;10.73;9.73;;;20.60;99.90;;;;;;5073409;28;20170;-46
2023/05/14 10:02:21;;;;;;;13.32;10.15;;;20.60;99.90;;;;;;5073278;28;20231;-47
2023/05/14 10:04:59;;;;;;;12.18;10.90;;;20.60;99.90;;;;;;5073001;28;20560;-47
2023/05/14 10:07:56;;;;;;;11.02;9.88;;;20.90;99.90;;;;;;5073074;28;20249;-50
2023/05/14 10:10:27;;;;;;;13.30;9.32;;;20.90;99.90;;;;;;5064357;28;20201;-47
2023/05/14 10:12:57;;;;;;;13.02;9.88;;;21.00;99.90;;;;;;5072745;28;20170;-48
2023/05/14 10:16:00;;;;;;;15.05;9.95;;;21.30;99.90;;;;;;5073073;28;20181;-50
2023/05/14 10:18:30;;;;;;;12.98;9.32;;;;;;;;;;5072778;28;20628;-50
2023/05/14 10:21:04;;;;;;;12.90;9.52;;;21.30;99.90;;;;;;5072484;28;20531;-50
2023/05/14 10:23:30;;;;;;;12.43;10.23;;;;;;;;;;5072227;28;20181;-47
2023/05/14 10:25:59;;;;;;;13.02;10.50;;;;;;;;;;5072301;28;20181;-49
2023/05/14 10:28:26;;;;;;;11.15;9.90;;;21.10;99.90;;;;;;5072456;28;20181;-48
2023/05/14 10:30:53;;;;;;;12.30;10.77;;;21.50;99.90;;;;;;5071102;28;20166;-51
2023/05/14 10:33:18;;;;;;;12.00;10.63;;;21.90;99.90;;;;;;5072357;28;20174;-48
2023/05/14 10:36:04;;;;;;;13.82;11.30;;;21.70;99.90;;;;;;5072770;28;20170;-47
2023/05/14 10:38:39;;;;;;;16.90;12.35;;;21.70;99.90;;;;;;5072329;28;20509;-48
2023/05/14 10:41:09;;;;;;;13.77;11.57;;;21.70;99.90;;;;;;5072524;28;20193;-51
2023/05/14 10:43:40;;;;;;;15.88;13.45;;;21.60;99.90;;;;;;5072151;28;20641;-48
2023/05/14 10:46:06;;;;;;;12.55;10.93;;;21.70;99.90;;;;;;5072183;28;20178;-49
2023/05/14 10:48:33;;;;;;;13.55;11.05;;;;;;;;;;5072141;28;20209;-49
2023/05/14 10:51:00;;;;;;;13.45;10.57;;;;;;;;;;5072007;28;20162;-47
2023/05/14 10:53:31;;;;;;;13.40;9.75;;;;;;;;;;5072282;28;20198;-52
2023/05/14 10:55:57;;;;;;;13.40;8.80;;;21.90;99.90;;;;;;5071882;28;20587;-51
2023/05/14 10:58:23;;;;;;;10.80;9.02;;;;;;;;;;5071919;28;20170;-49
2023/05/14 11:00:54;;;;;;;10.57;9.50;;;21.50;99.90;;;;;;5072081;28;20667;-51
2023/05/14 11:03:20;;;;;;;15.50;9.32;;;;;;;;;;5071459;28;20181;-48
2023/05/14 11:05:47;;;;;;;17.23;10.35;;;;;;;;;;5072144;28;20293;-48
2023/05/14 11:08:13;;;;;;;13.50;9.27;;;21.30;99.90;;;;;;5072140;28;20816;-48
2023/05/14 11:10:39;;;;;;;10.68;8.77;;;;;;;;;;5071636;28;20201;-48
2023/05/14 11:13:05;;;;;;;14.25;10.45;;;21.40;99.90;;;;;;5071714;28;20177;-48
2023/05/14 11:15:30;;;;;;;11.65;9.20;;;21.60;99.90;;;;;;5071932;28;20259;-48
2023/05/14 11:17:56;;;;;;;8.95;8.05;;;;;;;;;;5070729;28;20635;-47
2023/05/14 11:20:22;;;;;;;13.60;8.48;;;;;;;;;;5071374;28;20169;-46
2023/05/14 11:22:50;;;;;;;8.52;7.63;;;;;;;;;;5071067;28;20808;-47
2023/05/14 11:25:24;;;;;;;9.10;7.72;;;22.70;99.90;;;;;;5071323;28;20170;-46
2023/05/14 11:27:51;;;;;;;7.97;7.18;;;23.00;99.90;;;;;;5071041;28;20216;-44
2023/05/14 11:30:18;;;;;;;8.82;7.07;;;22.80;99.90;;;;;;5070904;28;20169;-44
2023/05/14 11:32:45;;;;;;;11.15;8.82;;;;;;;;;;5071091;28;20166;-45
2023/05/14 11:35:12;;;;;;;12.40;8.88;;;23.40;99.90;;;;;;5071359;28;20177;-45
2023/05/14 11:37:38;;;;;;;10.43;8.55;;;23.00;99.90;;;;;;5070955;28;20166;-46
2023/05/14 11:40:08;;;;;;;12.57;8.63;;;22.70;99.90;;;;;;5070828;28;20642;-46
2023/05/14 11:42:36;;;;;;;10.20;8.32;;;23.00;99.90;;;;;;5070706;28;20586;-46
2023/05/14 11:45:02;;;;;;;10.25;7.55;;;;;;;;;;5071137;28;20526;-46
2023/05/14 11:47:30;;;;;;;8.35;6.40;;;23.10;99.90;;;;;;5070340;28;20692;-47
2023/05/14 11:49:57;;;;;;;6.97;6.28;;;;;;;;;;5070688;28;20250;-48
2023/05/14 11:52:22;;;;;;;9.30;6.07;;;23.30;98.70;;;;;;5070908;28;20250;-48
2023/05/14 11:54:49;;;;;;;11.00;6.10;;;23.20;98.70;;;;;;5070586;28;20630;-50
2023/05/14 11:57:18;;;;;;;7.97;6.00;;;23.50;99.60;;;;;;5070518;28;20173;-49
2023/05/14 11:59:44;;;;;;;6.65;5.93;;;23.70;95.60;;;;;;5070885;28;20166;-51
2023/05/14 12:02:17;;;;;;;11.02;5.90;;;23.80;98.50;;;;;;5070776;28;20178;-48
2023/05/14 12:04:48;;;;;;;6.95;5.60;;;24.00;94.80;;;;;;5071043;28;20174;-46
2023/05/14 12:07:15;;;;;;;7.60;5.60;;;24.20;96.30;;;;;;5070309;28;20221;-47
2023/05/14 12:09:49;;;;;;;6.50;5.80;;;23.40;95.30;;;;;;5070590;28;20173;-47
2023/05/14 12:12:18;;;;;;;7.22;5.50;;;23.00;97.60;;;;;;5070191;28;20157;-49
2023/05/14 12:14:47;;;;;;;6.93;6.10;;;23.40;98.20;;;;;;5070395;28;20239;-51
2023/05/14 12:17:20;;;;;;;6.60;6.00;;;23.70;98.30;;;;;;5070138;28;20185;-52
2023/05/14 12:19:52;;;;;;;6.15;4.82;;;23.90;96.90;;;;;;5070409;28;20215;-51
2023/05/14 12:22:21;;;;;;;7.57;5.13;;;23.70;94.90;;;;;;5070218;28;20249;-51
2023/05/14 12:24:57;;;;;;;11.52;4.90;;;24.00;95.90;;;;;;5070186;28;20682;-51
2023/05/14 12:27:25;;;;;;;7.22;4.35;;;24.10;92.80;;;;;;5070114;28;20216;-52
2023/05/14 12:30:02;;;;;;;5.60;4.03;;;24.20;91.50;;;;;;5067660;28;20646;-51
2023/05/14 12:32:31;;;;;;;5.80;3.92;;;24.00;90.90;;;;;;5070315;28;20200;-51
2023/05/14 12:34:56;;;;;;;3.80;3.38;;;23.90;91.30;;;;;;5068888;28;20169;-51
2023/05/14 12:37:22;;;;;;;4.05;3.33;;;24.10;90.50;;;;;;5069966;28;20196;-51
2023/05/14 12:39:48;;;;;;;4.35;3.50;;;;;;;;;;5069817;28;20534;-51
2023/05/14 12:42:15;;;;;;;8.13;3.78;;;24.10;89.90;;;;;;5070382;28;20254;-51
2023/05/14 12:44:40;;;;;;;8.50;3.97;;;24.20;91.80;;;;;;5070276;28;20170;-51
2023/05/14 12:47:06;;;;;;;11.20;5.90;;;23.70;94.50;;;;;;5068629;28;20211;-51